Time;durP1;ratioP1;P1;durP2;ratioP2;P2;SDS_P1;SDS_P2;PMS_P1;PMS_P2;Temp;Humidity;BMP_temperature;BMP_pressure;BME280_temperature;BME280_humidity;BME280_pressure;Samples;Min_cycle;Max_cycle;Signal;HPM_P1;HPM_P2
2023/11/08 00:02:11;;;;;;;2.23;1.10;;;;;;;7.46;100.00;96405.50;5034656;28;20205;-69
2023/11/08 00:04:37;;;;;;;2.70;1.33;;;;;;;7.59;100.00;96405.91;5034312;28;20198;-70
2023/11/08 00:07:04;;;;;;;4.90;1.53;;;;;;;7.76;100.00;96397.94;5034565;28;20220;-70
2023/11/08 00:09:31;;;;;;;4.07;1.60;;;;;;;7.80;100.00;96408.97;5034963;28;20221;-70
2023/11/08 00:11:57;;;;;;;3.07;1.70;;;;;;;7.75;100.00;96396.31;5034771;28;20204;-70
2023/11/08 00:14:25;;;;;;;4.27;1.23;;;;;;;7.91;100.00;96397.22;5034642;28;20212;-71
2023/11/08 00:16:52;;;;;;;3.57;1.57;;;;;;;7.79;100.00;96397.66;5035073;28;20598;-69
2023/11/08 00:19:19;;;;;;;2.37;1.50;;;;;;;7.67;100.00;96398.88;5034771;28;20718;-70
2023/11/08 00:21:45;;;;;;;3.00;2.07;;;;;;;7.89;100.00;96404.44;5034469;28;20201;-69
2023/11/08 00:24:12;;;;;;;2.93;1.67;;;;;;;7.67;100.00;96396.25;5034078;28;20201;-69
2023/11/08 00:26:38;;;;;;;3.40;1.40;;;;;;;7.78;100.00;96400.41;5034343;28;20228;-69
2023/11/08 00:29:05;;;;;;;2.20;1.70;;;;;;;7.78;100.00;96392.53;5034343;28;20221;-69
2023/11/08 00:31:33;;;;;;;4.53;2.00;;;;;;;8.00;100.00;96393.63;5036426;28;20220;-69
2023/11/08 00:33:59;;;;;;;3.17;1.80;;;;;;;7.79;100.00;96392.41;5038631;28;20198;-70
2023/11/08 00:36:26;;;;;;;7.00;1.50;;;;;;;7.78;100.00;96406.50;5038352;28;20217;-69
2023/11/08 00:38:53;;;;;;;2.33;1.50;;;;;;;7.76;100.00;96400.56;5038837;28;21326;-69
2023/11/08 00:41:19;;;;;;;3.90;2.00;;;;;;;7.79;100.00;96397.66;5038570;28;20327;-70
2023/11/08 00:43:46;;;;;;;3.07;1.70;;;;;;;7.82;100.00;96404.41;5037416;28;20193;-70
2023/11/08 00:46:12;;;;;;;2.30;1.37;;;;;;;7.86;100.00;96403.91;5037944;28;20221;-71
2023/11/08 00:48:40;;;;;;;2.53;1.60;;;;;;;8.07;100.00;96412.19;5038725;28;20233;-71
2023/11/08 00:51:07;;;;;;;5.03;1.60;;;;;;;8.04;100.00;96397.63;5037376;28;20198;-69
2023/11/08 00:53:33;;;;;;;3.47;1.80;;;;;;;7.90;100.00;96407.88;5036641;28;20201;-70
2023/11/08 00:56:00;;;;;;;4.20;1.70;;;;;;;7.98;100.00;96397.41;5039108;28;20228;-70
2023/11/08 00:58:27;;;;;;;3.83;1.80;;;;;;;7.90;100.00;96394.75;5037969;28;20224;-70
2023/11/08 01:00:53;;;;;;;4.73;1.40;;;;;;;7.69;100.00;96404.81;5037616;28;20255;-70
2023/11/08 01:03:20;;;;;;;2.30;1.43;;;;;;;7.75;100.00;96396.31;5037464;28;20216;-70
2023/11/08 01:05:48;;;;;;;2.63;1.70;;;;;;;7.88;100.00;96402.78;5037677;28;20584;-69
2023/11/08 01:08:15;;;;;;;2.47;1.50;;;;;;;7.54;100.00;96403.72;5037508;28;20211;-69
2023/11/08 01:10:43;;;;;;;2.53;1.50;;;;;;;7.60;100.00;96403.13;5037655;28;20228;-70
2023/11/08 01:13:12;;;;;;;4.27;1.90;;;;;;;7.83;100.00;96403.38;5037466;28;20201;-70
2023/11/08 01:15:39;;;;;;;3.43;1.50;;;;;;;7.63;100.00;96408.03;5038292;28;20331;-70
2023/11/08 01:18:06;;;;;;;4.63;1.70;;;;;;;7.75;100.00;96401.56;5038527;28;20197;-71
2023/11/08 01:20:33;;;;;;;2.37;1.80;;;;;;;7.72;100.00;96408.91;5037582;28;20240;-70
2023/11/08 01:23:02;;;;;;;3.67;1.70;;;;;;;7.82;100.00;96407.03;5037253;28;20197;-70
2023/11/08 01:25:28;;;;;;;5.17;1.73;;;;;;;7.71;100.00;96404.66;5037574;28;20212;-68
2023/11/08 01:27:55;;;;;;;1.70;1.60;;;;;;;7.55;100.00;96409.81;5038381;28;20675;-70
2023/11/08 01:30:21;;;;;;;2.40;1.57;;;;;;;7.62;100.00;96410.81;5037577;28;20221;-70
2023/11/08 01:32:48;;;;;;;3.53;1.67;;;;;;;7.66;100.00;96409.53;5036797;28;20210;-70
2023/11/08 01:35:14;;;;;;;4.07;1.70;;;;;;;7.56;100.00;96412.28;5037549;28;20213;-69
2023/11/08 01:37:41;;;;;;;2.30;1.53;;;;;;;7.55;100.00;96409.81;5037647;28;20221;-70
2023/11/08 01:40:10;;;;;;;3.07;1.53;;;;;;;7.65;100.00;96406.09;5036996;28;20686;-70
2023/11/08 01:42:37;;;;;;;2.47;1.90;;;;;;;7.47;100.00;96415.81;5037030;28;20201;-70
2023/11/08 01:45:04;;;;;;;1.40;1.30;;;;;;;7.26;100.00;96411.91;5037691;28;20213;-69
2023/11/08 01:47:33;;;;;;;4.23;1.60;;;;;;;7.38;100.00;96408.03;5036798;28;20217;-70
2023/11/08 01:50:01;;;;;;;2.50;1.50;;;;;;;7.42;100.00;96412.00;5037232;28;20312;-70
2023/11/08 01:52:27;;;;;;;2.90;1.60;;;;;;;7.57;100.00;96406.03;5036579;28;20201;-68
2023/11/08 01:54:54;;;;;;;2.70;1.93;;;;;;;7.49;100.00;96397.31;5037107;28;20204;-69
2023/11/08 01:57:23;;;;;;;1.77;1.40;;;;;;;7.56;100.00;96399.16;5037234;28;20239;-70
2023/11/08 01:59:52;;;;;;;2.00;1.70;;;;;;;7.66;100.00;96407.75;5037370;28;20679;-69
2023/11/08 02:02:19;;;;;;;2.63;1.80;;;;;;;7.49;100.00;96411.22;5036579;28;20201;-70
2023/11/08 02:04:46;;;;;;;11.53;2.00;;;;;;;7.49;100.00;96411.22;5036338;28;20205;-69
2023/11/08 02:07:13;;;;;;;4.37;2.20;;;;;;;7.63;100.00;96402.00;5037390;28;20217;-71
2023/11/08 02:09:39;;;;;;;3.27;1.53;;;;;;;7.56;100.00;96396.53;5036559;28;20233;-70
2023/11/08 02:12:07;;;;;;;5.50;1.53;;;;;;;7.53;100.00;96396.84;5036847;28;20224;-69
2023/11/08 02:14:35;;;;;;;2.40;1.70;;;;;;;7.72;100.00;96387.94;5036927;28;20776;-70
2023/11/08 02:17:02;;;;;;;2.67;1.40;;;;;;;7.48;100.00;96356.31;5036480;28;21000;-70
2023/11/08 02:19:28;;;;;;;2.30;1.40;;;;;;;7.38;100.00;96372.19;5036583;28;20212;-69
2023/11/08 02:21:55;;;;;;;3.03;1.70;;;;;;;7.30;100.00;96379.97;5036177;28;20201;-69
2023/11/08 02:24:23;;;;;;;2.27;1.67;;;;;;;7.61;100.00;96380.31;5036466;28;20668;-70
2023/11/08 02:26:50;;;;;;;2.10;1.53;;;;;;;7.37;100.00;96381.00;5036719;28;20235;-69
2023/11/08 02:29:17;;;;;;;5.27;1.70;;;;;;;7.51;100.00;96382.22;5035961;28;20204;-70
2023/11/08 02:31:44;;;;;;;1.57;1.20;;;;;;;7.40;100.00;96380.69;5036750;28;20205;-69
2023/11/08 02:34:10;;;;;;;2.87;1.40;;;;;;;7.57;100.00;96387.66;5036291;28;20219;-69
2023/11/08 02:36:37;;;;;;;3.67;1.50;;;;;;;7.70;100.00;96382.00;5035057;28;20217;-68
2023/11/08 02:39:04;;;;;;;2.27;1.27;;;;;;;7.59;100.00;96385.72;5036475;28;20751;-70
2023/11/08 02:41:32;;;;;;;2.10;1.50;;;;;;;7.90;100.00;96376.38;5036004;28;20208;-69
2023/11/08 02:43:59;;;;;;;1.60;1.40;;;;;;;7.61;100.00;96383.78;5035923;28;20193;-68
2023/11/08 02:46:26;;;;;;;2.47;1.40;;;;;;;7.73;100.00;96382.53;5036159;28;20232;-69
2023/11/08 02:48:56;;;;;;;2.40;1.47;;;;;;;7.58;100.00;96381.47;5036664;28;20206;-70
2023/11/08 02:51:23;;;;;;;3.53;1.53;;;;;;;7.63;100.00;96381.81;5035598;28;20661;-70
2023/11/08 02:53:50;;;;;;;2.53;0.93;;;;;;;7.64;100.00;96387.91;5035031;28;20201;-70
2023/11/08 02:56:16;;;;;;;1.57;1.20;;;;;;;7.66;100.00;96384.16;5036492;28;20217;-69
2023/11/08 02:58:44;;;;;;;2.00;1.37;;;;;;;7.88;100.00;96391.47;5035615;28;20205;-70
2023/11/08 03:01:11;;;;;;;2.03;1.10;;;;;;;7.75;100.00;96391.09;5035730;28;20205;-69
2023/11/08 03:03:38;;;;;;;1.73;1.37;;;;;;;7.79;100.00;96395.03;5035359;28;20208;-70
2023/11/08 03:06:05;;;;;;;4.60;1.20;;;;;;;7.82;100.00;96399.16;5035780;28;20417;-70
2023/11/08 03:08:33;;;;;;;1.10;0.90;;;;;;;7.90;100.00;96406.06;5034980;28;20207;-72
2023/11/08 03:11:00;;;;;;;3.30;1.67;;;;;;;7.85;100.00;96402.25;5036520;28;20270;-70
2023/11/08 03:13:26;;;;;;;1.90;1.30;;;;;;;7.84;100.00;96405.88;5035321;28;20213;-70
2023/11/08 03:15:56;;;;;;;2.90;1.30;;;;;;;7.85;100.00;96397.00;5036151;28;20225;-69
2023/11/08 03:18:22;;;;;;;2.47;1.37;;;;;;;7.91;100.00;96393.78;5035789;28;20299;-70
2023/11/08 03:20:49;;;;;;;1.67;1.30;;;;;;;7.92;100.00;96393.59;5036139;28;20309;-69
2023/11/08 03:23:15;;;;;;;2.67;1.17;;;;;;;7.87;100.00;96402.94;5034908;28;20569;-70
2023/11/08 03:25:42;;;;;;;1.57;1.27;;;;;;;7.78;100.00;96398.63;5035817;28;21140;-69
2023/11/08 03:28:09;;;;;;;1.17;0.97;;;;;;;7.73;100.00;96403.50;5033819;28;20203;-71
2023/11/08 03:30:37;;;;;;;2.30;1.33;;;;;;;7.92;100.00;96413.78;5035478;28;20217;-71
2023/11/08 03:33:06;;;;;;;8.50;1.57;;;;;;;7.98;100.00;96413.13;5035138;28;20816;-71
2023/11/08 03:35:32;;;;;;;1.37;1.17;;;;;;;7.76;100.00;96413.69;5035342;28;20220;-71
2023/11/08 03:38:00;;;;;;;5.23;1.43;;;;;;;7.69;100.00;96423.16;5035549;28;20197;-71
2023/11/08 03:40:27;;;;;;;2.93;1.40;;;;;;;7.71;100.00;96431.69;5035622;28;20647;-71
2023/11/08 03:42:54;;;;;;;1.93;1.37;;;;;;;7.71;100.00;96429.06;5034669;28;20275;-71
2023/11/08 03:45:20;;;;;;;1.93;1.20;;;;;;;7.78;100.00;96427.47;5035127;28;20205;-70
2023/11/08 03:47:47;;;;;;;2.17;1.17;;;;;;;7.77;100.00;96430.25;5034814;28;20201;-72
2023/11/08 03:50:15;;;;;;;1.80;1.10;;;;;;;7.83;100.00;96438.34;5035417;28;20235;-70
2023/11/08 03:52:42;;;;;;;1.60;1.27;;;;;;;7.66;100.00;96431.34;5034601;28;20211;-70
2023/11/08 03:55:09;;;;;;;2.13;1.67;;;;;;;7.65;100.00;96434.94;5035355;28;20209;-72
2023/11/08 03:57:36;;;;;;;1.67;1.20;;;;;;;7.56;100.00;96425.38;5035394;28;20260;-70
2023/11/08 04:00:04;;;;;;;2.33;1.17;;;;;;;7.59;100.00;96429.50;5035867;28;20193;-71
2023/11/08 04:02:30;;;;;;;1.90;1.30;;;;;;;7.58;100.00;96430.47;5034646;28;20209;-71
2023/11/08 04:04:57;;;;;;;2.37;1.40;;;;;;;7.42;100.00;96431.19;5034798;28;20675;-71
2023/11/08 04:07:27;;;;;;;2.53;1.40;;;;;;;7.55;100.00;96434.22;5039366;28;20278;-71
2023/11/08 04:09:53;;;;;;;2.17;1.27;;;;;;;7.28;100.00;96439.59;5038910;28;20201;-71
2023/11/08 04:12:21;;;;;;;2.97;1.37;;;;;;;7.08;100.00;96426.00;5039490;28;20213;-71
2023/11/08 04:14:47;;;;;;;2.40;1.40;;;;;;;7.21;100.00;96429.06;5038349;28;20201;-71
2023/11/08 04:17:15;;;;;;;4.47;1.47;;;;;;;7.31;100.00;96428.78;5038839;28;20246;-70
2023/11/08 04:19:45;;;;;;;1.90;1.13;;;;;;;7.25;100.00;96422.53;5038544;28;20205;-69
2023/11/08 04:22:14;;;;;;;3.37;1.33;;;;;;;7.28;100.00;96423.06;5039633;28;20208;-68
2023/11/08 04:24:41;;;;;;;2.30;1.50;;;;;;;7.35;100.00;96430.13;5038318;28;20262;-69
2023/11/08 04:27:09;;;;;;;2.67;1.50;;;;;;;7.17;100.00;96425.09;5038588;28;20227;-70
2023/11/08 04:29:35;;;;;;;1.37;1.10;;;;;;;7.16;100.00;96424.25;5038529;28;20237;-69
2023/11/08 04:32:02;;;;;;;2.13;1.10;;;;;;;7.14;100.00;96423.59;5039349;28;20221;-68
2023/11/08 04:34:29;;;;;;;2.10;1.20;;;;;;;6.98;100.00;96427.88;5038164;28;20225;-68
2023/11/08 04:36:55;;;;;;;1.27;1.03;;;;;;;7.06;100.00;96428.75;5038774;28;20640;-69
2023/11/08 04:39:22;;;;;;;1.40;1.00;;;;;;;7.10;100.00;96424.84;5038658;28;20211;-72
2023/11/08 04:41:52;;;;;;;5.00;1.20;;;;;;;7.34;100.00;96446.88;5038343;28;20312;-70
2023/11/08 04:44:18;;;;;;;1.93;1.00;;;;;;;7.22;100.00;96433.28;5038440;28;20219;-71
2023/11/08 04:46:45;;;;;;;2.23;1.50;;;;;;;7.38;100.00;96442.97;5038503;28;20225;-70
2023/11/08 04:49:12;;;;;;;2.37;0.90;;;;;;;7.31;100.00;96439.28;5038044;28;20215;-72
2023/11/08 04:51:38;;;;;;;2.10;1.40;;;;;;;7.35;100.00;96435.38;5038591;28;20694;-71
2023/11/08 04:54:05;;;;;;;2.17;1.10;;;;;;;7.40;100.00;96441.00;5038164;28;20197;-72
2023/11/08 04:56:32;;;;;;;4.90;1.50;;;;;;;7.54;100.00;96432.56;5037586;28;20217;-71
2023/11/08 04:59:00;;;;;;;6.87;1.90;;;;;;;7.59;100.00;96430.31;5038858;28;20290;-70
2023/11/08 05:01:28;;;;;;;18.17;5.87;;;;;;;7.51;100.00;96425.03;5038189;28;20208;-72
2023/11/08 05:03:55;;;;;;;15.70;5.17;;;;;;;7.44;100.00;96429.22;5037590;28;20197;-71
2023/11/08 05:06:22;;;;;;;20.87;6.70;;;;;;;7.59;100.00;96437.38;5037896;28;20307;-71
2023/11/08 05:08:50;;;;;;;19.07;5.43;;;;;;;7.23;100.00;96440.19;5038792;28;20205;-71
2023/11/08 05:11:17;;;;;;;36.00;10.37;;;;;;;7.43;100.00;96437.25;5037424;28;20282;-71
2023/11/08 05:13:43;;;;;;;46.67;17.27;;;;;;;7.50;100.00;96439.09;5037789;28;20205;-70
2023/11/08 05:16:12;;;;;;;30.67;10.97;;;;;;;7.59;100.00;96432.13;5037954;28;20315;-71
2023/11/08 05:18:38;;;;;;;20.07;8.93;;;;;;;7.58;100.00;96433.09;5036859;28;21475;-71
2023/11/08 05:21:05;;;;;;;10.17;4.53;;;;;;;7.48;100.00;96434.97;5037762;28;20211;-71
2023/11/08 05:23:31;;;;;;;6.07;2.93;;;;;;;7.27;100.00;96430.06;5037142;28;20830;-72
2023/11/08 05:25:58;;;;;;;2.77;1.60;;;;;;;7.30;100.00;96437.63;5037786;28;20221;-71
2023/11/08 05:28:25;;;;;;;3.60;1.93;;;;;;;7.41;100.00;96437.41;5037824;28;20416;-72
2023/11/08 05:30:51;;;;;;;4.80;1.80;;;;;;;7.44;100.00;96433.66;5037395;28;20224;-72
2023/11/08 05:33:19;;;;;;;4.03;2.10;;;;;;;7.60;100.00;96439.84;5037661;28;20211;-70
2023/11/08 05:35:45;;;;;;;3.43;2.00;;;;;;;7.30;100.00;96436.81;5037534;28;20893;-70
2023/11/08 05:38:12;;;;;;;1.67;1.33;;;;;;;7.47;100.00;96438.56;5037217;28;20204;-71
2023/11/08 05:40:39;;;;;;;5.33;1.50;;;;;;;7.33;100.00;96441.75;5037830;28;20203;-71
2023/11/08 05:43:06;;;;;;;7.90;3.07;;;;;;;7.53;100.00;96437.97;5036967;28;20201;-72
2023/11/08 05:45:32;;;;;;;10.30;3.10;;;;;;;7.59;100.00;96440.00;5037498;28;20212;-71
2023/11/08 05:47:59;;;;;;;4.40;2.80;;;;;;;7.50;100.00;96438.28;5037735;28;20958;-72
2023/11/08 05:50:27;;;;;;;4.10;2.20;;;;;;;7.69;100.00;96427.56;5037219;28;20219;-71
2023/11/08 05:52:54;;;;;;;3.60;2.13;;;;;;;7.65;100.00;96432.31;5036702;28;20197;-70
2023/11/08 05:55:21;;;;;;;3.77;2.33;;;;;;;7.51;100.00;96430.25;5037362;28;20209;-71
2023/11/08 05:57:47;;;;;;;6.07;2.17;;;;;;;7.70;100.00;96435.31;5037193;28;20213;-71
2023/11/08 06:00:14;;;;;;;5.53;2.10;;;;;;;7.64;100.00;96440.34;5037064;28;20201;-73
2023/11/08 06:02:41;;;;;;;6.50;2.63;;;;;;;7.63;100.00;96433.47;5036186;28;20204;-72
2023/11/08 06:05:09;;;;;;;4.67;2.37;;;;;;;7.61;100.00;96438.84;5036739;28;20205;-70
2023/11/08 06:07:37;;;;;;;3.03;1.83;;;;;;;7.80;100.00;96430.75;5035767;28;20272;-72
2023/11/08 06:10:04;;;;;;;12.80;2.50;;;;;;;7.63;100.00;96444.75;5037180;28;20411;-71
2023/11/08 06:12:30;;;;;;;6.57;1.80;;;;;;;7.40;100.00;96448.84;5036264;28;20322;-72
2023/11/08 06:14:58;;;;;;;3.17;1.70;;;;;;;7.54;100.00;96444.88;5037280;28;20971;-69
2023/11/08 06:17:25;;;;;;;5.73;1.97;;;;;;;7.39;100.00;96444.56;5036854;28;20317;-71
2023/11/08 06:19:52;;;;;;;4.47;2.10;;;;;;;7.62;100.00;96448.34;5036674;28;20224;-71
2023/11/08 06:22:21;;;;;;;3.17;1.90;;;;;;;7.78;100.00;96448.47;5035967;28;20216;-72
2023/11/08 06:24:49;;;;;;;4.17;1.80;;;;;;;7.81;100.00;96448.16;5036034;28;20205;-70
2023/11/08 06:27:15;;;;;;;3.63;2.03;;;;;;;7.49;100.00;96449.75;5036601;28;20225;-69
2023/11/08 06:29:41;;;;;;;12.07;2.70;;;;;;;7.47;100.00;96456.94;5034354;28;20220;-68
2023/11/08 06:32:08;;;;;;;12.87;4.90;;;;;;;7.38;100.00;96455.22;5036930;28;20217;-70
2023/11/08 06:34:35;;;;;;;8.07;3.53;;;;;;;7.47;100.00;96460.41;5035023;28;20217;-70
2023/11/08 06:37:01;;;;;;;5.07;2.63;;;;;;;7.56;100.00;96469.13;5036745;28;20240;-68
2023/11/08 06:39:28;;;;;;;11.27;2.90;;;;;;;7.64;100.00;96464.75;5036238;28;20220;-70
2023/11/08 06:41:57;;;;;;;4.00;2.00;;;;;;;7.66;100.00;96470.69;5036070;28;20224;-70
2023/11/08 06:44:23;;;;;;;2.67;1.40;;;;;;;7.50;100.00;96473.19;5035202;28;20271;-70
2023/11/08 06:46:51;;;;;;;2.53;1.90;;;;;;;7.54;100.00;96466.66;5036819;28;20221;-70
2023/11/08 06:49:17;;;;;;;2.20;1.67;;;;;;;7.58;100.00;96477.66;5035892;28;20203;-69
2023/11/08 06:51:44;;;;;;;2.60;1.80;;;;;;;7.63;100.00;96475.41;5036168;28;20221;-70
2023/11/08 06:54:10;;;;;;;4.33;1.83;;;;;;;7.65;100.00;96474.28;5035815;28;20201;-70
2023/11/08 06:56:37;;;;;;;3.23;2.37;;;;;;;7.63;100.00;96491.16;5036036;28;20838;-69
2023/11/08 06:59:05;;;;;;;2.83;1.93;;;;;;;7.85;100.00;96491.44;5036140;28;20201;-68
2023/11/08 07:01:35;;;;;;;4.10;1.80;;;;;;;7.80;100.00;96488.47;5035960;28;20208;-69
2023/11/08 07:04:02;;;;;;;5.07;2.13;;;;;;;7.70;100.00;96494.78;5035431;28;20205;-68
2023/11/08 07:06:28;;;;;;;5.93;2.40;;;;;;;7.70;100.00;96503.50;5036351;28;20228;-69
2023/11/08 07:08:55;;;;;;;3.97;2.23;;;;;;;7.62;100.00;96505.22;5035950;28;20212;-70
2023/11/08 07:11:23;;;;;;;7.00;2.37;;;;;;;7.58;100.00;96503.91;5035215;28;20770;-68
2023/11/08 07:13:50;;;;;;;4.33;2.67;;;;;;;7.74;100.00;96506.63;5035064;28;20681;-70
2023/11/08 07:16:18;;;;;;;5.57;2.37;;;;;;;7.83;100.00;96508.31;5036552;28;20224;-70
2023/11/08 07:18:45;;;;;;;7.70;2.10;;;;;;;7.88;100.00;96507.72;5034940;28;20241;-70
2023/11/08 07:21:17;;;;;;;3.30;2.20;;;;;;;8.04;100.00;96514.88;5035148;28;20678;-69
2023/11/08 07:23:44;;;;;;;4.93;1.80;;;;;;;7.63;100.00;96512.94;5034716;28;20209;-69
2023/11/08 07:26:13;;;;;;;4.50;2.13;;;;;;;7.87;100.00;96516.56;5036172;28;20306;-68
2023/11/08 07:28:40;;;;;;;2.93;1.90;;;;;;;7.85;100.00;96522.94;5035409;28;20205;-69
2023/11/08 07:31:08;;;;;;;4.03;1.53;;;;;;;7.92;100.00;96522.16;5035949;28;20197;-70
2023/11/08 07:33:36;;;;;;;4.50;1.87;;;;;;;8.04;100.00;96517.50;5034916;28;20233;-70
2023/11/08 07:36:03;;;;;;;2.87;1.90;;;;;;;8.03;100.00;96516.69;5035039;28;20225;-68
2023/11/08 07:38:30;;;;;;;3.57;1.70;;;;;;;8.07;100.00;96518.00;5035694;28;20267;-70
2023/11/08 07:40:58;;;;;;;2.63;1.47;;;;;;;8.21;100.00;96521.88;5035331;28;20205;-69
2023/11/08 07:43:26;;;;;;;2.43;1.47;;;;;;;8.26;100.00;96522.25;5034985;28;20209;-70
2023/11/08 07:45:53;;;;;;;3.73;1.60;;;;;;;8.35;100.00;96522.16;5035583;28;20221;-69
2023/11/08 07:48:19;;;;;;;3.00;1.67;;;;;;;8.47;100.00;96527.94;5036132;28;20216;-70
2023/11/08 07:50:47;;;;;;;2.90;1.43;;;;;;;8.36;100.00;96522.97;5034470;28;20197;-69
2023/11/08 07:53:14;;;;;;;4.30;1.50;;;;;;;8.55;100.00;96528.78;5035038;28;20355;-68
2023/11/08 07:55:40;;;;;;;2.37;1.70;;;;;;;8.30;100.00;96534.91;5035127;28;20225;-69
2023/11/08 07:58:06;;;;;;;2.83;1.70;;;;;;;8.52;100.00;96529.13;5035664;28;20708;-68
2023/11/08 08:00:33;;;;;;;7.90;2.50;;;;;;;8.89;100.00;96522.50;5032066;28;20209;-68
2023/11/08 08:02:59;;;;;;;3.83;2.03;;;;;;;8.78;100.00;96535.13;5034085;28;20209;-70
2023/11/08 08:05:26;;;;;;;5.57;2.40;;;;;;;8.75;100.00;96536.25;5034226;28;20204;-68
2023/11/08 08:07:54;;;;;;;4.10;2.03;;;;;;;8.88;100.00;96522.69;5033879;28;20197;-69
2023/11/08 08:10:22;;;;;;;3.80;1.80;;;;;;;8.88;100.00;96526.13;5033748;28;20553;-70
2023/11/08 08:12:49;;;;;;;3.23;1.60;;;;;;;8.61;100.00;96534.22;5032398;28;20230;-70
2023/11/08 08:15:16;;;;;;;3.30;1.37;;;;;;;8.77;100.00;96531.69;5034228;28;20197;-68
2023/11/08 08:17:45;;;;;;;3.60;2.00;;;;;;;8.74;100.00;96539.06;5033693;28;20235;-69
2023/11/08 08:20:11;;;;;;;2.83;1.27;;;;;;;8.69;100.00;96533.44;5034369;28;20204;-68
2023/11/08 08:22:38;;;;;;;1.97;1.50;;;;;;;8.59;100.00;96535.38;5031393;28;20198;-68
2023/11/08 08:25:07;;;;;;;2.30;1.47;;;;;;;8.80;100.00;96541.88;5033785;28;20217;-69
2023/11/08 08:27:34;;;;;;;2.73;1.60;;;;;;;8.71;100.00;96545.44;5033986;28;20225;-69
2023/11/08 08:30:01;;;;;;;4.40;1.93;;;;;;;8.67;100.00;96545.94;5034313;28;20284;-70
2023/11/08 08:32:27;;;;;;;1.53;1.30;;;;;;;8.71;100.00;96545.44;5033095;28;20224;-70
2023/11/08 08:34:54;;;;;;;4.10;1.57;;;;;;;8.62;100.00;96546.38;5033444;28;20213;-67
2023/11/08 08:37:21;;;;;;;3.53;1.60;;;;;;;9.03;100.00;96542.94;5033483;28;20235;-70
2023/11/08 08:39:48;;;;;;;2.97;1.20;;;;;;;8.91;100.00;96533.69;5033434;28;21201;-69
2023/11/08 08:42:16;;;;;;;3.87;1.30;;;;;;;9.02;100.00;96535.22;5032708;28;20312;-68
2023/11/08 08:44:43;;;;;;;2.70;1.63;;;;;;;9.06;100.00;96532.09;5032832;28;20288;-68
2023/11/08 08:47:09;;;;;;;2.77;1.33;;;;;;;8.93;100.00;96536.16;5033475;28;20221;-70
2023/11/08 08:49:36;;;;;;;3.13;1.80;;;;;;;9.23;100.00;96531.97;5033167;28;20212;-69
2023/11/08 08:52:03;;;;;;;2.53;1.40;;;;;;;9.38;100.00;96534.78;5033399;28;20251;-68
2023/11/08 08:54:30;;;;;;;1.90;1.20;;;;;;;9.31;100.00;96536.41;5036809;28;20205;-69
2023/11/08 08:56:58;;;;;;;4.10;1.67;;;;;;;9.13;100.00;96541.00;5036867;28;20225;-68
2023/11/08 08:59:26;;;;;;;7.13;1.77;;;;;;;9.70;100.00;96533.81;5036742;28;20211;-69
2023/11/08 09:01:52;;;;;;;2.80;1.50;;;;;;;9.38;100.00;96532.97;5035900;28;20212;-70
2023/11/08 09:04:19;;;;;;;3.37;1.43;;;;;;;9.56;100.00;96532.81;5035857;28;20209;-69
2023/11/08 09:06:46;;;;;;;1.87;1.43;;;;;;;9.64;100.00;96530.22;5035418;28;20225;-69
2023/11/08 09:09:14;;;;;;;1.63;1.40;;;;;;;9.24;100.00;96532.78;5036348;28;21095;-68
2023/11/08 09:11:41;;;;;;;3.03;1.73;;;;;;;9.73;100.00;96525.59;5035669;28;20224;-69
2023/11/08 09:14:08;;;;;;;1.63;1.40;;;;;;;9.59;100.00;96527.25;5036583;28;20204;-69
2023/11/08 09:16:38;;;;;;;3.93;1.37;;;;;;;9.75;100.00;96523.63;5035673;28;21051;-69
2023/11/08 09:19:06;;;;;;;2.07;1.40;;;;;;;9.83;100.00;96531.50;5036565;28;20205;-69
2023/11/08 09:21:33;;;;;;;1.70;1.40;;;;;;;9.79;100.00;96535.47;5035456;28;20205;-68
2023/11/08 09:24:01;;;;;;;2.23;1.17;;;;;;;9.60;100.00;96528.88;5035343;28;20201;-70
2023/11/08 09:26:28;;;;;;;3.23;1.93;;;;;;;9.84;100.00;96538.44;5036546;28;20229;-69
2023/11/08 09:28:55;;;;;;;1.93;1.40;;;;;;;9.94;100.00;96533.81;5035264;28;20256;-68
2023/11/08 09:31:25;;;;;;;2.30;1.67;;;;;;;10.00;100.00;96535.81;5035959;28;21128;-69
2023/11/08 09:33:53;;;;;;;1.97;1.50;;;;;;;9.86;100.00;96541.72;5034451;28;20240;-70
2023/11/08 09:36:21;;;;;;;2.03;1.30;;;;;;;9.80;100.00;96549.44;5036264;28;20236;-70
2023/11/08 09:38:49;;;;;;;8.00;1.27;;;;;;;9.92;100.00;96541.03;5034873;28;20291;-69
2023/11/08 09:41:17;;;;;;;3.13;1.50;;;;;;;9.94;100.00;96533.81;5036122;28;20205;-68
2023/11/08 09:43:47;;;;;;;1.60;1.20;;;;;;;10.12;100.00;96542.38;5035313;28;20721;-70
2023/11/08 09:46:14;;;;;;;2.83;1.50;;;;;;;10.11;100.00;96529.41;5036311;28;20279;-70
2023/11/08 09:48:42;;;;;;;4.20;1.30;;;;;;;10.04;100.00;96523.97;5034579;28;20205;-70
2023/11/08 09:51:11;;;;;;;1.70;1.27;;;;;;;10.23;100.00;96526.22;5035945;28;20835;-70
2023/11/08 09:53:39;;;;;;;5.07;1.50;;;;;;;10.25;100.00;96520.81;5034700;28;20251;-72
2023/11/08 09:56:06;;;;;;;2.37;1.30;;;;;;;10.44;100.00;96521.25;5035693;28;20256;-68
2023/11/08 09:58:33;;;;;;;4.07;1.77;;;;;;;10.63;100.00;96526.13;5035458;28;20196;-70
2023/11/08 10:01:02;;;;;;;3.70;1.60;;;;;;;10.65;100.00;96524.13;5035447;28;20197;-69
2023/11/08 10:03:31;;;;;;;0.90;0.87;;;;;;;10.59;100.00;96525.66;5034216;28;20696;-70
2023/11/08 10:05:59;;;;;;;2.53;1.50;;;;;;;10.79;100.00;96526.88;5035088;28;20225;-69
2023/11/08 10:08:28;;;;;;;3.70;1.60;;;;;;;11.03;100.00;96518.84;5035637;28;20220;-70
2023/11/08 10:10:59;;;;;;;1.77;1.10;;;;;;;11.04;100.00;96516.03;5034860;28;20201;-69
2023/11/08 10:13:40;;;;;;;5.17;1.47;;;;;;;11.35;100.00;96511.56;5034600;28;20774;-69
2023/11/08 10:16:09;;;;;;;3.10;1.50;;;;;;;10.97;100.00;96525.66;5035230;28;20217;-68
2023/11/08 10:18:36;;;;;;;2.03;1.20;;;;;;;10.85;100.00;96526.19;5034395;28;20201;-70
2023/11/08 10:21:07;;;;;;;2.17;1.17;;;;;;;10.97;100.00;96519.53;5035410;28;20312;-68
2023/11/08 10:23:36;;;;;;;3.80;1.90;;;;;;;10.89;100.00;96505.59;5033526;28;20205;-69
2023/11/08 10:26:17;;;;;;;3.50;1.70;;;;;;;11.28;100.00;96508.00;5035640;28;20227;-70
2023/11/08 10:29:00;;;;;;;4.23;2.03;;;;;;;11.34;100.00;96507.31;5035076;28;20659;-70
2023/11/08 10:31:34;;;;;;;3.37;1.53;;;;;;;11.38;100.00;96498.03;5033013;28;20227;-67
2023/11/08 10:34:02;;;;;;;1.97;1.40;;;;;;;11.37;100.00;96495.56;5033617;28;20225;-69
2023/11/08 10:36:30;;;;;;;3.30;1.30;;;;;;;11.46;100.00;96495.34;5035490;28;20594;-69
2023/11/08 10:38:58;;;;;;;1.73;1.50;;;;;;;11.34;100.00;96491.47;5034897;28;20205;-67
2023/11/08 10:41:25;;;;;;;3.33;1.67;;;;;;;11.57;100.00;96492.31;5033002;28;20216;-69
2023/11/08 10:44:07;;;;;;;3.00;1.37;;;;;;;11.68;100.00;96486.59;5033725;28;20201;-71
2023/11/08 10:46:34;;;;;;;1.47;0.97;;;;;;;11.57;100.00;96490.50;5032304;28;20229;-69
2023/11/08 10:49:01;;;;;;;2.10;1.00;;;;;;;11.65;100.00;96474.59;5034125;28;20796;-70
2023/11/08 10:51:30;;;;;;;1.43;1.13;;;;;;;11.78;100.00;96485.34;5034442;28;20283;-70
2023/11/08 10:53:58;;;;;;;0.80;0.80;;;;;;;11.66;100.00;96476.22;5034005;28;20881;-68
2023/11/08 10:56:26;;;;;;;2.57;1.10;;;;;;;11.73;100.00;96465.78;5033524;28;20714;-68
2023/11/08 10:59:02;;;;;;;3.17;1.10;;;;;;;11.72;100.00;96464.97;5034311;28;20267;-68
2023/11/08 11:01:31;;;;;;;2.83;1.40;;;;;;;12.06;100.00;96461.84;5034340;28;20205;-67
2023/11/08 11:04:04;;;;;;;2.00;1.00;;;;;;;11.95;100.00;96460.47;5033327;28;20722;-68
2023/11/08 11:06:33;;;;;;;1.20;0.83;;;;;;;11.90;100.00;96461.97;5033827;28;20911;-71
2023/11/08 11:09:04;;;;;;;1.00;0.90;;;;;;;11.80;100.00;96466.69;5034274;28;20209;-71
2023/11/08 11:11:33;;;;;;;2.60;1.47;;;;;;;11.99;100.00;96466.19;5033689;28;20213;-68
2023/11/08 11:14:07;;;;;;;1.50;0.90;;;;;;;11.91;100.00;96467.09;5033529;28;20225;-70
2023/11/08 11:16:41;;;;;;;1.23;0.90;;;;;;;12.14;100.00;96452.00;5033190;28;20331;-69
2023/11/08 11:19:11;;;;;;;2.73;1.10;;;;;;;11.98;100.00;96464.56;5034478;28;21192;-68
2023/11/08 11:21:44;;;;;;;0.97;0.87;;;;;;;11.98;100.00;96459.28;5033970;28;20664;-70
2023/11/08 11:24:37;;;;;;;0.80;0.70;;;;;;;12.23;100.00;96445.63;5034114;28;20205;-70
2023/11/08 11:27:05;;;;;;;1.07;0.97;;;;;;;12.26;100.00;96451.38;5033709;28;20808;-70
2023/11/08 11:29:33;;;;;;;0.97;0.80;;;;;;;12.25;100.00;96456.84;5034410;28;20205;-70
2023/11/08 11:32:03;;;;;;;2.50;0.70;;;;;;;12.00;100.00;96457.28;5034756;28;20208;-70
2023/11/08 11:34:44;;;;;;;1.00;0.70;;;;;;;12.34;100.00;96450.47;5033182;28;20225;-70